Time;durP1;ratioP1;P1;durP2;ratioP2;P2;SDS_P1;SDS_P2;PMS_P1;PMS_P2;Temp;Humidity;BMP_temperature;BMP_pressure;BME280_temperature;BME280_humidity;BME280_pressure;Samples;Min_cycle;Max_cycle;Signal;HPM_P1;HPM_P2
2022/06/09 00:01:43;;;;;;;;;;;;;;;15.83;77.61;99530.63;5066324;28;19932;-82
2022/06/09 00:04:14;;;;;;;;;;;;;;;15.87;77.54;99532.69;5074168;28;20307;-82
2022/06/09 00:06:43;;;;;;;;;;;;;;;15.90;77.53;99540.38;5071640;28;19924;-82
2022/06/09 00:09:10;;;;;;;;;;;;;;;15.94;77.32;99530.81;5073352;28;19924;-82
2022/06/09 00:11:38;;;;;;;;;;;;;;;15.94;77.42;99542.06;5073978;28;19931;-82
2022/06/09 00:14:06;;;;;;;;;;;;;;;16.01;77.27;99535.75;5074542;28;19924;-82
2022/06/09 00:16:34;;;;;;;;;;;;;;;16.07;77.14;99539.06;5073624;28;19931;-82
2022/06/09 00:19:01;;;;;;;;;;;;;;;16.13;76.86;99552.44;5074508;28;20020;-82
2022/06/09 00:21:29;;;;;;;;;;;;;;;16.02;77.00;99541.00;5070163;28;19931;-81
2022/06/09 00:23:56;;;;;;;;;;;;;;;16.10;76.81;99544.72;5064945;28;20283;-82
2022/06/09 00:26:23;;;;;;;;;;;;;;;16.04;76.84;99554.66;5074134;28;19932;-82
2022/06/09 00:28:50;;;;;;;;;;;;;;;16.01;77.07;99547.78;5074117;28;20299;-82
2022/06/09 00:31:17;;;;;;;;;;;;;;;16.03;77.08;99547.44;5071468;28;19932;-82
2022/06/09 00:33:45;;;;;;;;;;;;;;;15.96;77.27;99550.94;5073459;28;20345;-82
2022/06/09 00:36:12;;;;;;;;;;;;;;;16.12;76.62;99553.59;5072926;28;20403;-81
2022/06/09 00:38:40;;;;;;;;;;;;;;;16.09;76.88;99553.56;5071840;28;19924;-82
2022/06/09 00:41:07;;;;;;;;;;;;;;;16.00;77.18;99550.97;5073428;28;19932;-82
2022/06/09 00:43:35;;;;;;;;;;;;;;;16.01;76.98;99556.22;5073291;28;19932;-82
2022/06/09 00:46:09;;;;;;;;;;;;;;;15.91;77.33;99567.25;5073624;28;20387;-81
2022/06/09 00:48:41;;;;;;;;;;;;;;;15.94;77.08;99575.75;5074322;28;20280;-82
2022/06/09 00:51:13;;;;;;;;;;;;;;;15.95;76.82;99573.75;5073346;28;19925;-81
2022/06/09 00:53:43;;;;;;;;;;;;;;;15.93;76.74;99578.94;5072258;28;19924;-82
2022/06/09 00:56:11;;;;;;;;;;;;;;;15.89;76.89;99584.47;5073326;28;19948;-82
2022/06/09 00:58:40;;;;;;;;;;;;;;;15.92;77.03;99589.38;5074345;28;20281;-82
2022/06/09 01:01:09;;;;;;;;;;;;;;;16.00;76.56;99585.50;5073030;28;19948;-82
2022/06/09 01:03:37;;;;;;;;;;;;;;;16.03;76.58;99587.56;5073903;28;20368;-82
2022/06/09 01:06:07;;;;;;;;;;;;;;;16.05;76.53;99587.19;5073269;28;19928;-82
2022/06/09 01:08:35;;;;;;;;;;;;;;;16.05;76.67;99581.56;5072499;28;19924;-82
2022/06/09 01:11:05;;;;;;;;;;;;;;;16.15;76.48;99586.56;5080488;28;20385;-81
2022/06/09 01:13:33;;;;;;;;;;;;;;;16.18;75.81;99594.25;5080004;28;19931;-82
2022/06/09 01:16:04;;;;;;;;;;;;;;;16.15;76.12;99597.81;5079354;28;19924;-82
2022/06/09 01:18:36;;;;;;;;;;;;;;;16.20;75.62;99594.69;5082122;28;19928;-82
2022/06/09 01:21:10;;;;;;;;;;;;;;;16.20;75.76;99597.50;5079690;28;19931;-82
2022/06/09 01:23:55;;;;;;;;;;;;;;;16.19;75.72;99598.69;5075228;28;20301;-81
2022/06/09 01:26:44;;;;;;;;;;;;;;;16.29;75.58;99596.44;5079389;28;19925;-82
2022/06/09 01:29:24;;;;;;;;;;;;;;;16.27;75.36;99604.44;5079785;28;20292;-83
2022/06/09 01:31:54;;;;;;;;;;;;;;;16.24;75.51;99594.75;5077993;28;19925;-82
2022/06/09 01:34:25;;;;;;;;;;;;;;;16.28;75.63;99603.25;5059428;28;19925;-82
2022/06/09 01:36:55;;;;;;;;;;;;;;;16.24;75.18;99601.19;5059470;28;19925;-81
2022/06/09 01:39:28;;;;;;;;;;;;;;;16.25;75.02;99604.78;5063866;28;19924;-82
2022/06/09 01:41:55;;;;;;;;;;;;;;;16.22;75.14;99602.75;5079322;28;19925;-82
2022/06/09 01:44:22;;;;;;;;;;;;;;;16.23;75.06;99599.56;5079180;28;20328;-82
2022/06/09 01:46:50;;;;;;;;;;;;;;;16.22;74.76;99609.16;5079402;28;19932;-81
2022/06/09 01:49:21;;;;;;;;;;;;;;;16.21;74.60;99613.19;5079364;28;20408;-82
2022/06/09 01:51:50;;;;;;;;;;;;;;;16.12;75.12;99608.97;5079696;28;19924;-82
2022/06/09 01:54:21;;;;;;;;;;;;;;;16.10;75.09;99619.78;5075957;28;21661;-82
2022/06/09 01:56:50;;;;;;;;;;;;;;;16.04;75.12;99622.06;5079697;28;19931;-82
2022/06/09 01:59:19;;;;;;;;;;;;;;;16.09;75.39;99618.97;5079629;28;20386;-82
2022/06/09 02:01:48;;;;;;;;;;;;;;;16.04;75.38;99624.88;5079413;28;19924;-82
2022/06/09 02:04:16;;;;;;;;;;;;;;;16.13;75.01;99627.47;5078792;28;19931;-82
2022/06/09 02:06:46;;;;;;;;;;;;;;;16.17;74.78;99629.16;5079757;28;19925;-82
2022/06/09 02:09:13;;;;;;;;;;;;;;;16.22;74.50;99628.84;5079320;28;19931;-83
2022/06/09 02:11:47;;;;;;;;;;;;;;;16.16;74.64;99626.72;5077517;28;19924;-82
2022/06/09 02:14:14;;;;;;;;;;;;;;;16.19;74.18;99635.22;5080135;28;19924;-82
2022/06/09 02:16:41;;;;;;;;;;;;;;;16.18;74.25;99630.78;5079266;28;19925;-83
2022/06/09 02:19:08;;;;;;;;;;;;;;;16.22;73.91;99622.41;5079534;28;19931;-82
2022/06/09 02:21:39;;;;;;;;;;;;;;;16.22;73.94;99628.03;5075801;28;19924;-82
2022/06/09 02:24:09;;;;;;;;;;;;;;;16.21;74.14;99623.59;5067371;28;19939;-82
2022/06/09 02:26:36;;;;;;;;;;;;;;;16.22;74.10;99626.03;5060867;28;19925;-83
2022/06/09 02:29:03;;;;;;;;;;;;;;;16.23;73.73;99627.66;5076856;28;19925;-82
2022/06/09 02:31:30;;;;;;;;;;;;;;;16.23;73.62;99629.66;5076495;28;19924;-83
2022/06/09 02:34:01;;;;;;;;;;;;;;;16.23;73.40;99638.91;5056610;28;19925;-82
2022/06/09 02:36:28;;;;;;;;;;;;;;;16.30;73.32;99640.22;5055960;28;19932;-82
2022/06/09 02:38:55;;;;;;;;;;;;;;;16.35;73.41;99629.47;5055059;28;20296;-83
2022/06/09 02:41:24;;;;;;;;;;;;;;;16.32;73.33;99635.03;5054608;28;19929;-83
2022/06/09 02:43:51;;;;;;;;;;;;;;;16.37;73.19;99640.34;5055269;28;19925;-82
2022/06/09 02:46:18;;;;;;;;;;;;;;;16.43;73.34;99638.84;5055366;28;20408;-82
2022/06/09 02:48:46;;;;;;;;;;;;;;;16.43;72.95;99633.22;5056063;28;19924;-83
2022/06/09 02:51:19;;;;;;;;;;;;;;;16.40;72.63;99632.00;5055554;28;19925;-79
2022/06/09 02:53:46;;;;;;;;;;;;;;;16.44;72.34;99626.41;5055997;28;20277;-82
2022/06/09 02:56:13;;;;;;;;;;;;;;;16.41;72.08;99633.59;5053484;28;19925;-82
2022/06/09 02:58:42;;;;;;;;;;;;;;;16.23;72.44;99636.09;5055917;28;19929;-83
2022/06/09 03:01:09;;;;;;;;;;;;;;;16.28;72.05;99631.34;5054925;28;19925;-82
2022/06/09 03:03:36;;;;;;;;;;;;;;;16.29;71.99;99627.34;5055573;28;19925;-82
2022/06/09 03:06:04;;;;;;;;;;;;;;;16.20;72.59;99639.63;5055438;28;19931;-81
2022/06/09 03:08:31;;;;;;;;;;;;;;;16.17;72.80;99637.59;5055072;28;19925;-82
2022/06/09 03:10:58;;;;;;;;;;;;;;;16.21;72.52;99634.81;5053868;28;19932;-82
2022/06/09 03:13:25;;;;;;;;;;;;;;;16.09;73.07;99638.63;5055424;28;19925;-82
2022/06/09 03:15:57;;;;;;;;;;;;;;;16.13;72.88;99638.72;5055468;28;19924;-82
2022/06/09 03:18:24;;;;;;;;;;;;;;;16.17;72.73;99648.84;5057504;28;19935;-82
2022/06/09 03:20:51;;;;;;;;;;;;;;;16.22;72.71;99648.50;5055339;28;20361;-82
2022/06/09 03:23:19;;;;;;;;;;;;;;;16.28;72.66;99642.59;5052502;28;19929;-81
2022/06/09 03:25:46;;;;;;;;;;;;;;;16.22;72.45;99650.50;5053601;28;19925;-82
2022/06/09 03:28:13;;;;;;;;;;;;;;;16.21;72.65;99649.72;5055016;28;19932;-82
2022/06/09 03:30:40;;;;;;;;;;;;;;;16.30;71.84;99660.72;5054841;28;20091;-82
2022/06/09 03:33:08;;;;;;;;;;;;;;;16.29;72.28;99656.25;5054444;28;19933;-82
2022/06/09 03:35:38;;;;;;;;;;;;;;;16.33;72.03;99661.94;5054107;28;19925;-82
2022/06/09 03:38:05;;;;;;;;;;;;;;;16.30;71.90;99662.72;5054417;28;19929;-80
2022/06/09 03:40:32;;;;;;;;;;;;;;;16.30;72.14;99671.13;5069388;28;19947;-82
2022/06/09 03:43:02;;;;;;;;;;;;;;;16.31;72.26;99678.38;5074754;28;19924;-82
2022/06/09 03:45:29;;;;;;;;;;;;;;;16.30;71.97;99669.13;5074406;28;19930;-82
2022/06/09 03:47:56;;;;;;;;;;;;;;;16.33;72.08;99676.00;5074815;28;19932;-82
2022/06/09 03:50:27;;;;;;;;;;;;;;;16.39;71.56;99682.94;5073829;28;19932;-82
2022/06/09 03:52:54;;;;;;;;;;;;;;;16.34;71.60;99691.69;5074484;28;19939;-82
2022/06/09 03:55:22;;;;;;;;;;;;;;;16.32;71.73;99689.25;5073223;28;19929;-81
2022/06/09 03:57:49;;;;;;;;;;;;;;;16.37;71.71;99699.38;5073958;28;19925;-82
2022/06/09 04:00:17;;;;;;;;;;;;;;;16.33;71.78;99693.66;5073842;28;19931;-81
2022/06/09 04:02:44;;;;;;;;;;;;;;;16.34;71.66;99700.94;5072033;28;19924;-80
2022/06/09 04:05:13;;;;;;;;;;;;;;;16.34;72.07;99711.38;5053797;28;19936;-82
2022/06/09 04:07:43;;;;;;;;;;;;;;;16.37;71.43;99710.59;5053748;28;19932;-82
2022/06/09 04:10:14;;;;;;;;;;;;;;;16.37;71.23;99710.59;5053641;28;19925;-81
2022/06/09 04:12:41;;;;;;;;;;;;;;;16.27;71.82;99716.84;5053914;28;20323;-82
2022/06/09 04:15:10;;;;;;;;;;;;;;;16.32;71.62;99713.75;5053395;28;19924;-81
2022/06/09 04:17:37;;;;;;;;;;;;;;;16.21;71.90;99714.34;5054148;28;19924;-82
2022/06/09 04:20:05;;;;;;;;;;;;;;;16.18;71.95;99726.31;5061245;28;19928;-82
2022/06/09 04:22:32;;;;;;;;;;;;;;;16.21;72.04;99719.97;5053160;28;19944;-81
2022/06/09 04:25:00;;;;;;;;;;;;;;;16.30;72.02;99728.16;5053952;28;20312;-82
2022/06/09 04:27:27;;;;;;;;;;;;;;;16.32;71.54;99725.78;5053395;28;20011;-82
2022/06/09 04:29:54;;;;;;;;;;;;;;;16.20;71.87;99729.56;5053245;28;19925;-82
2022/06/09 04:32:21;;;;;;;;;;;;;;;16.31;71.68;99724.16;5052774;28;19925;-82
2022/06/09 04:34:48;;;;;;;;;;;;;;;16.35;71.05;99729.84;5063136;28;19924;-82
2022/06/09 04:37:15;;;;;;;;;;;;;;;16.46;70.84;99736.47;5073283;28;19939;-81
2022/06/09 04:39:42;;;;;;;;;;;;;;;16.40;70.87;99740.78;5073286;28;19929;-82
2022/06/09 04:42:13;;;;;;;;;;;;;;;16.49;70.86;99734.94;5072874;28;19924;-80
2022/06/09 04:44:41;;;;;;;;;;;;;;;16.36;70.92;99742.72;5072819;28;19924;-82
2022/06/09 04:47:08;;;;;;;;;;;;;;;16.51;70.36;99739.00;5073076;28;19924;-82
2022/06/09 04:49:35;;;;;;;;;;;;;;;16.53;70.40;99741.44;5071151;28;20034;-82
2022/06/09 04:52:02;;;;;;;;;;;;;;;16.60;70.29;99750.00;5073103;28;19947;-82
2022/06/09 04:54:29;;;;;;;;;;;;;;;16.56;70.33;99749.91;5073360;28;19925;-83
2022/06/09 04:56:57;;;;;;;;;;;;;;;16.60;70.27;99748.00;5069875;28;19931;-82
2022/06/09 04:59:25;;;;;;;;;;;;;;;16.63;70.50;99755.69;5065979;28;19924;-82
2022/06/09 05:01:52;;;;;;;;;;;;;;;16.60;69.71;99750.81;5066911;28;20384;-81
2022/06/09 05:04:20;;;;;;;;;;;;;;;16.71;69.99;99759.44;5067380;28;19932;-82
2022/06/09 05:06:47;;;;;;;;;;;;;;;16.77;69.97;99757.13;5066374;28;19944;-82
2022/06/09 05:09:14;;;;;;;;;;;;;;;16.78;69.46;99764.41;5067373;28;19936;-81
2022/06/09 05:11:41;;;;;;;;;;;;;;;16.81;69.42;99772.91;5069911;28;19924;-82
2022/06/09 05:14:08;;;;;;;;;;;;;;;16.80;69.77;99773.28;5060992;28;20369;-82
2022/06/09 05:16:37;;;;;;;;;;;;;;;16.82;69.45;99768.94;5070639;28;19931;-81
2022/06/09 05:19:04;;;;;;;;;;;;;;;16.70;69.94;99773.88;5062962;28;20191;-83
2022/06/09 05:21:32;;;;;;;;;;;;;;;16.62;70.01;99779.34;5072576;28;19933;-82
2022/06/09 05:24:00;;;;;;;;;;;;;;;16.59;70.20;99785.75;5070179;28;20391;-82
2022/06/09 05:26:27;;;;;;;;;;;;;;;16.54;70.93;99788.84;5068958;28;19950;-82
2022/06/09 05:28:55;;;;;;;;;;;;;;;16.64;70.41;99791.06;5073155;28;19948;-82
2022/06/09 05:31:23;;;;;;;;;;;;;;;16.76;70.11;99795.69;5066649;28;20189;-82
2022/06/09 05:33:51;;;;;;;;;;;;;;;16.76;69.96;99801.31;5067362;28;19925;-83
2022/06/09 05:36:18;;;;;;;;;;;;;;;16.79;70.02;99803.38;5052416;28;19932;-84
2022/06/09 05:47:07;;;;;;;;;;;;;;;16.76;69.72;99820.22;5029896;28;20372;-82
2022/06/09 05:49:36;;;;;;;;;;;;;;;16.67;69.77;99814.00;5069732;28;20307;-84
2022/06/09 05:52:03;;;;;;;;;;;;;;;16.63;70.29;99819.53;5072245;28;19947;-84
2022/06/09 05:54:30;;;;;;;;;;;;;;;16.57;70.69;99824.66;5067974;28;20307;-84
2022/06/09 05:56:57;;;;;;;;;;;;;;;16.73;70.06;99818.13;5076217;28;19932;-85
2022/06/09 05:59:24;;;;;;;;;;;;;;;16.75;69.57;99821.38;5057504;28;19925;-85
2022/06/09 06:01:52;;;;;;;;;;;;;;;16.81;69.54;99828.34;5072343;28;19924;-87
2022/06/09 06:04:19;;;;;;;;;;;;;;;16.84;69.54;99824.81;5076969;28;19925;-88
2022/06/09 06:06:47;;;;;;;;;;;;;;;16.95;69.04;99837.06;5082116;28;19935;-93
2022/06/09 06:09:16;;;;;;;;;;;;;;;17.07;68.82;99830.44;5081688;28;20300;-91
2022/06/09 06:11:44;;;;;;;;;;;;;;;17.15;68.15;99837.03;5088516;28;19939;-93
2022/06/09 06:14:11;;;;;;;;;;;;;;;17.21;68.32;99839.16;5086851;28;19990;-92
2022/06/09 06:16:38;;;;;;;;;;;;;;;17.34;67.73;99839.75;5084048;28;19936;-91
2022/06/09 06:19:06;;;;;;;;;;;;;;;17.27;67.49;99845.28;5081044;28;19932;-91
2022/06/09 06:21:33;;;;;;;;;;;;;;;17.36;67.75;99845.03;5083733;28;19935;-92
2022/06/09 06:24:03;;;;;;;;;;;;;;;17.39;67.32;99847.09;5084680;28;19924;-92
2022/06/09 06:26:31;;;;;;;;;;;;;;;17.60;66.64;99846.66;5083230;28;19925;-92
2022/06/09 06:28:58;;;;;;;;;;;;;;;17.79;65.68;99848.56;5062315;28;19925;-87
2022/06/09 06:31:25;;;;;;;;;;;;;;;17.61;66.32;99862.34;5070079;28;19936;-85
2022/06/09 06:33:52;;;;;;;;;;;;;;;17.73;65.35;99861.34;5071624;28;19925;-83
2022/06/09 06:36:19;;;;;;;;;;;;;;;17.70;65.98;99865.72;5063579;28;19925;-82
2022/06/09 06:38:47;;;;;;;;;;;;;;;17.67;65.55;99876.94;5062610;28;19947;-90
2022/06/09 06:41:15;;;;;;;;;;;;;;;17.76;65.38;99869.81;5071044;28;19933;-87
2022/06/09 06:43:43;;;;;;;;;;;;;;;17.70;65.38;99884.59;5075538;28;20407;-88
2022/06/09 06:46:10;;;;;;;;;;;;;;;17.76;65.71;99895.19;5073873;28;19924;-88
2022/06/09 06:48:37;;;;;;;;;;;;;;;17.90;65.70;99891.81;5071503;28;19928;-88
2022/06/09 06:51:06;;;;;;;;;;;;;;;18.00;65.06;99896.81;5072521;28;19935;-89
2022/06/09 06:53:33;;;;;;;;;;;;;;;17.84;65.01;99899.75;5056349;28;19925;-88
2022/06/09 06:56:00;;;;;;;;;;;;;;;18.00;64.81;99898.81;5063921;28;19925;-87
2022/06/09 06:58:28;;;;;;;;;;;;;;;18.01;64.76;99911.69;5063043;28;19925;-87
2022/06/09 07:00:59;;;;;;;;;;;;;;;18.11;64.44;99908.25;5074966;28;20676;-88
2022/06/09 07:03:26;;;;;;;;;;;;;;;18.29;64.42;99913.31;5068129;28;19925;-85
2022/06/09 07:05:53;;;;;;;;;;;;;;;18.40;63.46;99917.13;5065216;28;19924;-84
2022/06/09 07:08:20;;;;;;;;;;;;;;;18.42;62.99;99912.72;5057968;28;19932;-82
2022/06/09 07:10:47;;;;;;;;;;;;;;;18.42;62.80;99920.38;5061942;28;20295;-86
2022/06/09 07:13:14;;;;;;;;;;;;;;;18.58;62.92;99932.28;5074977;28;19935;-84
2022/06/09 07:15:42;;;;;;;;;;;;;;;18.57;62.71;99927.03;5074710;28;19936;-88
2022/06/09 07:18:10;;;;;;;;;;;;;;;18.67;61.83;99934.81;5072538;28;19924;-84
2022/06/09 07:20:43;;;;;;;;;;;;;;;18.65;62.13;99935.19;5076081;28;19939;-87
2022/06/09 07:23:10;;;;;;;;;;;;;;;18.60;62.71;99946.00;5065195;28;19925;-86
2022/06/09 07:25:37;;;;;;;;;;;;;;;18.50;61.93;99947.50;5074084;28;19928;-87
2022/06/09 07:28:06;;;;;;;;;;;;;;;18.44;62.11;99943.38;5057041;28;19933;-87
2022/06/09 07:30:33;;;;;;;;;;;;;;;18.41;61.85;99952.56;5067319;28;19929;-86
2022/06/09 07:33:02;;;;;;;;;;;;;;;18.25;62.44;99950.75;5067651;28;19932;-85
2022/06/09 07:35:30;;;;;;;;;;;;;;;18.32;62.57;99952.06;5073454;28;19929;-90
2022/06/09 07:37:57;;;;;;;;;;;;;;;18.80;61.21;99960.81;5068120;28;19925;-87
2022/06/09 07:40:28;;;;;;;;;;;;;;;19.13;60.67;99957.19;5071464;28;19930;-86
2022/06/09 07:42:55;;;;;;;;;;;;;;;19.43;59.92;99961.97;5072076;28;19936;-84
2022/06/09 07:45:23;;;;;;;;;;;;;;;19.58;58.78;99966.56;5067128;28;19932;-80
2022/06/09 07:47:50;;;;;;;;;;;;;;;19.61;58.73;99973.44;5072816;28;20284;-86
2022/06/09 07:50:19;;;;;;;;;;;;;;;19.96;58.56;99977.84;5076585;28;19931;-83
2022/06/09 07:52:46;;;;;;;;;;;;;;;20.22;57.41;99983.31;5073463;28;19928;-86
2022/06/09 07:55:14;;;;;;;;;;;;;;;20.37;57.01;99980.56;5074770;28;19924;-89
2022/06/09 07:57:41;;;;;;;;;;;;;;;20.36;57.07;99990.28;5075193;28;19935;-89
2022/06/09 08:00:09;;;;;;;;;;;;;;;20.28;56.73;99989.41;5063160;28;19925;-87
2022/06/09 08:02:36;;;;;;;;;;;;;;;20.12;57.03;100003.84;5067598;28;19931;-87
2022/06/09 08:05:03;;;;;;;;;;;;;;;19.92;57.20;99994.75;5075744;28;19924;-88
2022/06/09 08:07:32;;;;;;;;;;;;;;;19.72;57.66;99994.19;5072233;28;19925;-90
2022/06/09 08:09:59;;;;;;;;;;;;;;;19.75;57.57;99999.03;5067813;28;20295;-85
2022/06/09 08:12:26;;;;;;;;;;;;;;;19.63;58.18;100002.13;5074320;28;19928;-88
2022/06/09 08:14:53;;;;;;;;;;;;;;;19.50;59.37;100000.78;5074886;28;19925;-88
2022/06/09 08:17:20;;;;;;;;;;;;;;;19.22;60.45;100004.91;5073265;28;19924;-89
2022/06/09 08:19:47;;;;;;;;;;;;;;;18.85;61.94;100017.72;5068682;28;19925;-91
2022/06/09 08:22:15;;;;;;;;;;;;;;;18.81;62.65;100016.84;5075424;28;19947;-89
2022/06/09 08:24:44;;;;;;;;;;;;;;;18.60;63.73;100025.78;5069079;28;19932;-90
2022/06/09 08:27:12;;;;;;;;;;;;;;;18.59;63.88;100027.00;5074180;28;20027;-92
2022/06/09 08:29:39;;;;;;;;;;;;;;;18.59;64.17;100034.66;5069276;28;20305;-86
2022/06/09 08:32:06;;;;;;;;;;;;;;;18.43;64.06;100038.41;5068722;28;19925;-87
2022/06/09 08:34:34;;;;;;;;;;;;;;;18.51;64.10;100045.00;5070319;28;19931;-88
2022/06/09 08:37:01;;;;;;;;;;;;;;;18.58;63.98;100045.13;5070002;28;20292;-86
2022/06/09 08:39:28;;;;;;;;;;;;;;;18.65;63.57;100044.41;5072779;28;19932;-85
2022/06/09 08:42:03;;;;;;;;;;;;;;;18.73;63.97;100050.97;5064967;28;19931;-84
2022/06/09 08:44:36;;;;;;;;;;;;;;;18.59;64.49;100057.22;5068493;28;19924;-85
2022/06/09 08:47:07;;;;;;;;;;;;;;;18.69;63.65;100055.72;5065406;28;19931;-88
2022/06/09 08:49:41;;;;;;;;;;;;;;;18.54;64.04;100066.81;5071206;28;19924;-87
2022/06/09 08:52:14;;;;;;;;;;;;;;;18.84;63.62;100069.72;5054665;28;20396;-87
2022/06/09 08:54:41;;;;;;;;;;;;;;;19.07;63.17;100060.38;5063749;28;19924;-88
2022/06/09 08:57:13;;;;;;;;;;;;;;;19.64;61.24;100058.25;5070758;28;19924;-88
2022/06/09 08:59:42;;;;;;;;;;;;;;;19.96;60.55;100054.16;5069991;28;20276;-86
2022/06/09 09:02:26;;;;;;;;;;;;;;;20.27;59.65;100058.50;5072849;28;19932;-87
2022/06/09 09:05:00;;;;;;;;;;;;;;;20.97;58.59;100061.44;5063181;28;19925;-89
2022/06/09 09:07:30;;;;;;;;;;;;;;;22.70;54.85;100053.00;5060699;28;19924;-90
2022/06/09 09:09:59;;;;;;;;;;;;;;;22.95;51.95;100055.00;5072840;28;19924;-85
2022/06/09 09:12:34;;;;;;;;;;;;;;;23.73;50.99;100047.41;5072910;28;20281;-90
2022/06/09 09:15:05;;;;;;;;;;;;;;;24.86;47.73;100046.13;5074087;28;20002;-89
2022/06/09 09:17:38;;;;;;;;;;;;;;;26.76;43.65;100036.97;5069207;28;19924;-86
2022/06/09 09:20:10;;;;;;;;;;;;;;;26.85;42.40;100040.84;5065766;28;20373;-87
2022/06/09 09:22:39;;;;;;;;;;;;;;;26.99;40.78;100045.50;5067129;28;19928;-83
2022/06/09 09:25:17;;;;;;;;;;;;;;;28.49;39.47;100049.19;5072740;28;19931;-88
2022/06/09 09:27:48;;;;;;;;;;;;;;;30.05;37.07;100050.09;5073630;28;19947;-88
2022/06/09 09:30:19;;;;;;;;;;;;;;;31.34;33.53;100037.84;5073324;28;20395;-88
2022/06/09 09:32:48;;;;;;;;;;;;;;;32.21;32.37;100046.81;5063174;28;19929;-85
2022/06/09 09:35:18;;;;;;;;;;;;;;;32.84;30.25;100044.59;5066591;28;19932;-83
2022/06/09 09:37:47;;;;;;;;;;;;;;;33.26;29.48;100052.63;5057738;28;19931;-89
2022/06/09 09:40:16;;;;;;;;;;;;;;;31.63;31.84;100059.03;5073696;28;19925;-90
2022/06/09 09:42:45;;;;;;;;;;;;;;;31.51;30.85;100061.50;5064320;28;19925;-86
2022/06/09 09:45:23;;;;;;;;;;;;;;;30.96;32.42;100075.44;5071179;28;19924;-85
2022/06/09 09:47:53;;;;;;;;;;;;;;;30.29;33.06;100071.50;5069051;28;20388;-89
2022/06/09 09:50:25;;;;;;;;;;;;;;;30.15;33.21;100064.13;5077407;28;19931;-88
2022/06/09 09:52:57;;;;;;;;;;;;;;;30.03;33.23;100064.13;5073170;28;19925;-88
2022/06/09 09:55:26;;;;;;;;;;;;;;;31.38;30.80;100063.63;5062525;28;19925;-87
2022/06/09 09:58:17;;;;;;;;;;;;;;;33.03;28.51;100056.94;5074004;28;20284;-85
2022/06/09 10:00:46;;;;;;;;;;;;;;;33.65;27.24;100067.38;5044411;28;20289;-85
2022/06/09 10:08:50;;;;;;;;;;;;;;;34.61;26.26;100066.03;5079422;28;19924;-85
2022/06/09 10:14:08;;;;;;;;;;;;;;;34.64;26.50;100074.56;5078353;28;19929;-87
2022/06/09 10:16:37;;;;;;;;;;;;;;;35.90;23.59;100070.75;5074752;28;19924;-85
2022/06/09 10:19:07;;;;;;;;;;;;;;;36.62;24.12;100058.72;5059722;28;20399;-87
2022/06/09 10:21:48;;;;;;;;;;;;;;;37.14;23.01;100075.53;5064665;28;20380;-86
2022/06/09 10:24:18;;;;;;;;;;;;;;;35.76;23.68;100078.16;5076655;28;20284;-84
2022/06/09 10:26:48;;;;;;;;;;;;;;;36.55;23.39;100074.44;5064049;28;19937;-84
2022/06/09 10:29:17;;;;;;;;;;;;;;;36.73;23.08;100072.63;5063332;28;20329;-84
2022/06/09 10:31:50;;;;;;;;;;;;;;;36.59;23.26;100068.44;5058423;28;19932;-83
2022/06/09 10:34:23;;;;;;;;;;;;;;;35.68;24.68;100079.84;5067222;28;19932;-82
2022/06/09 10:36:53;;;;;;;;;;;;;;;36.32;24.27;100090.72;5060170;28;20373;-82
2022/06/09 10:39:27;;;;;;;;;;;;;;;36.17;23.42;100079.16;5060926;28;20017;-84
2022/06/09 10:41:56;;;;;;;;;;;;;;;35.63;24.46;100083.41;5067015;28;19936;-84
2022/06/09 10:44:27;;;;;;;;;;;;;;;36.43;23.13;100069.78;5074073;28;19925;-84
2022/06/09 10:55:37;;;;;;;;;;;;;;;38.15;19.98;100088.19;5058856;28;20380;-86
2022/06/09 10:58:08;;;;;;;;;;;;;;;37.63;21.76;100091.13;5074548;28;20301;-88
2022/06/09 11:00:36;;;;;;;;;;;;;;;36.43;22.70;100110.38;5073661;28;20561;-82
2022/06/09 11:03:12;;;;;;;;;;;;;;;33.20;26.09;100118.09;5070428;28;19924;-86
2022/06/09 11:05:47;;;;;;;;;;;;;;;34.04;25.04;100096.50;5059005;28;19924;-85
2022/06/09 11:08:19;;;;;;;;;;;;;;;34.45;25.33;100107.75;5070340;28;19932;-84
2022/06/09 11:10:53;;;;;;;;;;;;;;;33.63;26.18;100112.47;5069442;28;20034;-84
2022/06/09 11:13:29;;;;;;;;;;;;;;;33.54;26.35;100114.06;5069105;28;20397;-82
2022/06/09 11:16:10;;;;;;;;;;;;;;;34.37;25.08;100121.75;5072272;28;19925;-84
2022/06/09 11:18:44;;;;;;;;;;;;;;;33.68;26.38;100126.25;5068654;28;19928;-84
2022/06/09 11:21:16;;;;;;;;;;;;;;;34.66;24.64;100121.16;5072534;28;19931;-84
2022/06/09 11:23:52;;;;;;;;;;;;;;;32.78;27.20;100138.84;5068345;28;19925;-85
2022/06/09 11:26:24;;;;;;;;;;;;;;;30.53;30.78;100137.25;5065145;28;19925;-86
2022/06/09 11:28:58;;;;;;;;;;;;;;;30.14;32.18;100133.53;5068582;28;19929;-84
2022/06/09 11:31:34;;;;;;;;;;;;;;;29.30;32.79;100140.06;5074255;28;19924;-85
2022/06/09 11:34:19;;;;;;;;;;;;;;;28.43;33.82;100134.03;5075154;28;20418;-84
2022/06/09 11:36:51;;;;;;;;;;;;;;;27.73;35.50;100138.84;5059837;28;20384;-83
2022/06/09 11:39:28;;;;;;;;;;;;;;;27.20;36.11;100147.22;5059045;28;19925;-85
2022/06/09 11:41:59;;;;;;;;;;;;;;;26.55;39.54;100153.19;5068589;28;19931;-84
2022/06/09 11:44:28;;;;;;;;;;;;;;;26.08;41.30;100181.63;5071690;28;20424;-84
2022/06/09 11:46:58;;;;;;;;;;;;;;;25.54;43.81;100184.31;5075603;28;19932;-85
2022/06/09 11:49:32;;;;;;;;;;;;;;;24.15;60.74;100192.66;5070738;28;20392;-84
2022/06/09 11:52:01;;;;;;;;;;;;;;;24.27;54.84;100200.75;5054941;28;19924;-84
2022/06/09 11:54:36;;;;;;;;;;;;;;;23.76;53.88;100211.53;5056570;28;20392;-82
2022/06/09 11:57:20;;;;;;;;;;;;;;;23.07;54.40;100210.00;5072478;28;19928;-83
2022/06/09 11:59:55;;;;;;;;;;;;;;;22.86;53.25;100217.28;5069453;28;19940;-83
2022/06/09 12:02:44;;;;;;;;;;;;;;;22.30;57.23;100210.31;5068673;28;19935;-85
2022/06/09 12:05:21;;;;;;;;;;;;;;;22.17;57.05;100217.50;5067582;28;19925;-85
2022/06/09 12:08:08;;;;;;;;;;;;;;;22.11;57.24;100211.41;5059984;28;19925;-85
2022/06/09 12:10:42;;;;;;;;;;;;;;;22.15;57.66;100206.56;5065243;28;19932;-86
2022/06/09 12:13:16;;;;;;;;;;;;;;;21.94;55.70;100217.81;5072210;28;19925;-85
2022/06/09 12:15:49;;;;;;;;;;;;;;;22.07;55.51;100214.25;5068916;28;19980;-86
2022/06/09 12:18:36;;;;;;;;;;;;;;;22.11;55.16;100211.41;5065789;28;19925;-85
2022/06/09 12:21:10;;;;;;;;;;;;;;;22.20;54.74;100213.91;5073984;28;19925;-84
2022/06/09 12:23:38;;;;;;;;;;;;;;;22.44;54.15;100218.84;5060720;28;19939;-84
2022/06/09 12:26:19;;;;;;;;;;;;;;;23.12;54.10;100208.78;5064831;28;19936;-84
2022/06/09 12:28:47;;;;;;;;;;;;;;;23.18;52.46;100207.16;5066148;28;19935;-84
2022/06/09 12:31:16;;;;;;;;;;;;;;;23.46;53.96;100215.66;5071120;28;19932;-84
2022/06/09 12:33:51;;;;;;;;;;;;;;;23.68;52.17;100212.75;5072172;28;19932;-85
2022/06/09 12:36:27;;;;;;;;;;;;;;;24.89;48.48;100207.69;5065247;28;20365;-84
2022/06/09 12:38:56;;;;;;;;;;;;;;;25.69;50.37;100222.84;5067300;28;19932;-84
2022/06/09 12:41:32;;;;;;;;;;;;;;;26.26;49.18;100232.78;5066793;28;19925;-84
2022/06/09 12:44:04;;;;;;;;;;;;;;;26.49;48.21;100229.19;5064192;28;19932;-84
2022/06/09 12:46:34;;;;;;;;;;;;;;;26.90;46.42;100231.88;5064822;28;19932;-86
2022/06/09 12:49:14;;;;;;;;;;;;;;;26.88;46.33;100233.56;5069060;28;19924;-84
2022/06/09 12:51:41;;;;;;;;;;;;;;;26.64;47.53;100236.34;5067967;28;19939;-83
2022/06/09 12:54:19;;;;;;;;;;;;;;;26.52;47.18;100236.88;5072269;28;19925;-82
2022/06/09 12:56:53;;;;;;;;;;;;;;;26.22;47.42;100244.22;5065523;28;19931;-82
2022/06/09 12:59:23;;;;;;;;;;;;;;;25.95;48.18;100252.72;5070451;28;19935;-81
2022/06/09 13:01:54;;;;;;;;;;;;;;;25.72;48.58;100257.03;5071861;28;19925;-85
2022/06/09 13:04:22;;;;;;;;;;;;;;;25.28;49.10;100272.13;5062481;28;19944;-84
2022/06/09 13:06:50;;;;;;;;;;;;;;;24.64;46.66;100282.72;5068021;28;19932;-85
2022/06/09 13:09:20;;;;;;;;;;;;;;;23.93;47.41;100302.91;5070284;28;19924;-85
2022/06/09 13:14:33;;;;;;;;;;;;;;;22.65;49.89;100325.94;5072804;28;20376;-85
2022/06/09 13:17:02;;;;;;;;;;;;;;;22.15;51.70;100333.41;5070572;28;19932;-84
2022/06/09 13:19:30;;;;;;;;;;;;;;;21.72;51.88;100333.16;5066366;28;19929;-82
2022/06/09 13:22:00;;;;;;;;;;;;;;;21.56;52.24;100336.28;5052867;28;20372;-85
2022/06/09 13:24:31;;;;;;;;;;;;;;;21.26;52.79;100329.50;5064430;28;19936;-86